sensor_id;sensor_type;location;lat;lon;timestamp;temperature;humidity
50556;DHT22;36508;52.512;13.450;2023-04-25T00:00:03;9.30;99.90
50556;DHT22;36508;52.512;13.450;2023-04-25T00:02:32;9.20;99.90
50556;DHT22;36508;52.512;13.450;2023-04-25T00:05:00;9.20;99.90
50556;DHT22;36508;52.512;13.450;2023-04-25T00:07:26;9.30;99.90
50556;DHT22;36508;52.512;13.450;2023-04-25T00:09:52;9.30;99.90
50556;DHT22;36508;52.512;13.450;2023-04-25T00:12:18;9.30;99.90
50556;DHT22;36508;52.512;13.450;2023-04-25T00:14:43;9.20;99.90
50556;DHT22;36508;52.512;13.450;2023-04-25T00:17:10;9.20;99.90
50556;DHT22;36508;52.512;13.450;2023-04-25T00:19:36;9.20;99.90
50556;DHT22;36508;52.512;13.450;2023-04-25T00:22:03;9.20;99.90
50556;DHT22;36508;52.512;13.450;2023-04-25T00:24:29;9.20;99.90
50556;DHT22;36508;52.512;13.450;2023-04-25T00:26:54;9.20;99.90
50556;DHT22;36508;52.512;13.450;2023-04-25T00:29:23;9.20;99.90
50556;DHT22;36508;52.512;13.450;2023-04-25T00:31:48;9.20;99.90
50556;DHT22;36508;52.512;13.450;2023-04-25T00:34:15;9.20;99.90
50556;DHT22;36508;52.512;13.450;2023-04-25T00:36:41;9.20;99.90
50556;DHT22;36508;52.512;13.450;2023-04-25T00:39:06;9.20;99.90
50556;DHT22;36508;52.512;13.450;2023-04-25T00:41:32;9.20;99.90
50556;DHT22;36508;52.512;13.450;2023-04-25T00:43:59;9.10;99.90
50556;DHT22;36508;52.512;13.450;2023-04-25T00:46:26;9.10;99.90
50556;DHT22;36508;52.512;13.450;2023-04-25T00:48:51;9.10;99.90
50556;DHT22;36508;52.512;13.450;2023-04-25T00:51:20;9.10;99.90
50556;DHT22;36508;52.512;13.450;2023-04-25T00:53:47;9.20;99.90
50556;DHT22;36508;52.512;13.450;2023-04-25T00:56:13;9.20;99.90
50556;DHT22;36508;52.512;13.450;2023-04-25T00:58:40;9.10;99.90
50556;DHT22;36508;52.512;13.450;2023-04-25T01:01:06;9.20;99.90
50556;DHT22;36508;52.512;13.450;2023-04-25T01:03:34;9.20;99.90
50556;DHT22;36508;52.512;13.450;2023-04-25T01:06:09;9.20;99.90
50556;DHT22;36508;52.512;13.450;2023-04-25T01:08:35;9.10;99.90
50556;DHT22;36508;52.512;13.450;2023-04-25T01:11:01;9.10;99.90
50556;DHT22;36508;52.512;13.450;2023-04-25T01:13:27;9.10;99.90
50556;DHT22;36508;52.512;13.450;2023-04-25T01:15:52;9.10;99.90
50556;DHT22;36508;52.512;13.450;2023-04-25T01:18:19;9.10;99.90
50556;DHT22;36508;52.512;13.450;2023-04-25T01:20:46;9.10;99.90
50556;DHT22;36508;52.512;13.450;2023-04-25T01:23:13;9.10;99.90
50556;DHT22;36508;52.512;13.450;2023-04-25T01:25:39;9.10;99.90
50556;DHT22;36508;52.512;13.450;2023-04-25T01:28:05;9.10;99.90
50556;DHT22;36508;52.512;13.450;2023-04-25T01:30:31;9.10;99.90
50556;DHT22;36508;52.512;13.450;2023-04-25T01:32:57;9.10;99.90
50556;DHT22;36508;52.512;13.450;2023-04-25T01:35:23;9.10;99.90
50556;DHT22;36508;52.512;13.450;2023-04-25T01:37:50;9.10;99.90
50556;DHT22;36508;52.512;13.450;2023-04-25T01:40:17;9.10;99.90
50556;DHT22;36508;52.512;13.450;2023-04-25T01:42:45;9.10;99.90
50556;DHT22;36508;52.512;13.450;2023-04-25T01:45:11;9.10;99.90
50556;DHT22;36508;52.512;13.450;2023-04-25T01:47:38;9.20;99.90
50556;DHT22;36508;52.512;13.450;2023-04-25T01:50:06;9.10;99.90
50556;DHT22;36508;52.512;13.450;2023-04-25T01:52:32;9.10;99.90
50556;DHT22;36508;52.512;13.450;2023-04-25T01:55:00;9.10;99.90
50556;DHT22;36508;52.512;13.450;2023-04-25T01:57:26;9.20;99.90
50556;DHT22;36508;52.512;13.450;2023-04-25T02:00:00;9.10;99.90
50556;DHT22;36508;52.512;13.450;2023-04-25T02:02:26;9.10;99.90
50556;DHT22;36508;52.512;13.450;2023-04-25T02:04:52;9.10;99.90
50556;DHT22;36508;52.512;13.450;2023-04-25T02:07:18;9.10;99.90
50556;DHT22;36508;52.512;13.450;2023-04-25T02:09:43;9.10;99.90
50556;DHT22;36508;52.512;13.450;2023-04-25T02:12:10;9.10;99.90
50556;DHT22;36508;52.512;13.450;2023-04-25T02:14:36;9.10;99.90
50556;DHT22;36508;52.512;13.450;2023-04-25T02:17:02;9.10;99.90
50556;DHT22;36508;52.512;13.450;2023-04-25T02:19:27;9.10;99.90
50556;DHT22;36508;52.512;13.450;2023-04-25T02:21:53;9.10;99.90
50556;DHT22;36508;52.512;13.450;2023-04-25T02:24:18;9.10;99.90
50556;DHT22;36508;52.512;13.450;2023-04-25T02:26:44;9.10;99.90
50556;DHT22;36508;52.512;13.450;2023-04-25T02:29:10;9.10;99.90
50556;DHT22;36508;52.512;13.450;2023-04-25T02:31:35;9.00;99.90
50556;DHT22;36508;52.512;13.450;2023-04-25T02:34:01;9.00;99.90
50556;DHT22;36508;52.512;13.450;2023-04-25T02:36:27;9.00;99.90
50556;DHT22;36508;52.512;13.450;2023-04-25T02:38:53;9.00;99.90
50556;DHT22;36508;52.512;13.450;2023-04-25T02:41:18;9.00;99.90
50556;DHT22;36508;52.512;13.450;2023-04-25T02:43:44;9.00;99.90
50556;DHT22;36508;52.512;13.450;2023-04-25T02:46:09;9.00;99.90
50556;DHT22;36508;52.512;13.450;2023-04-25T02:48:35;8.90;99.90
50556;DHT22;36508;52.512;13.450;2023-04-25T02:51:01;8.90;99.90
50556;DHT22;36508;52.512;13.450;2023-04-25T02:53:26;8.90;99.90
50556;DHT22;36508;52.512;13.450;2023-04-25T02:55:52;8.90;99.90
50556;DHT22;36508;52.512;13.450;2023-04-25T02:58:18;8.90;99.90
50556;DHT22;36508;52.512;13.450;2023-04-25T03:00:43;9.00;99.90
50556;DHT22;36508;52.512;13.450;2023-04-25T03:03:09;9.00;99.90
50556;DHT22;36508;52.512;13.450;2023-04-25T03:05:35;9.00;99.90
50556;DHT22;36508;52.512;13.450;2023-04-25T03:08:00;8.90;99.90
50556;DHT22;36508;52.512;13.450;2023-04-25T03:10:26;8.90;99.90
50556;DHT22;36508;52.512;13.450;2023-04-25T03:12:51;8.90;99.90
50556;DHT22;36508;52.512;13.450;2023-04-25T03:15:17;8.90;99.90
50556;DHT22;36508;52.512;13.450;2023-04-25T03:17:43;8.90;99.90
50556;DHT22;36508;52.512;13.450;2023-04-25T03:20:10;8.90;99.90
50556;DHT22;36508;52.512;13.450;2023-04-25T03:22:36;8.90;99.90
50556;DHT22;36508;52.512;13.450;2023-04-25T03:25:02;8.80;99.90
50556;DHT22;36508;52.512;13.450;2023-04-25T03:27:28;8.90;99.90
50556;DHT22;36508;52.512;13.450;2023-04-25T03:29:53;8.90;99.90
50556;DHT22;36508;52.512;13.450;2023-04-25T03:32:19;8.80;99.90
50556;DHT22;36508;52.512;13.450;2023-04-25T03:34:44;8.80;99.90
50556;DHT22;36508;52.512;13.450;2023-04-25T03:37:11;8.80;99.90
50556;DHT22;36508;52.512;13.450;2023-04-25T03:39:39;8.80;99.90
50556;DHT22;36508;52.512;13.450;2023-04-25T03:42:04;8.80;99.90
50556;DHT22;36508;52.512;13.450;2023-04-25T03:44:30;8.80;99.90
50556;DHT22;36508;52.512;13.450;2023-04-25T03:46:55;8.80;99.90
50556;DHT22;36508;52.512;13.450;2023-04-25T03:49:21;8.90;99.90
50556;DHT22;36508;52.512;13.450;2023-04-25T03:51:47;8.90;99.90
50556;DHT22;36508;52.512;13.450;2023-04-25T03:54:12;8.90;99.90
50556;DHT22;36508;52.512;13.450;2023-04-25T03:56:38;8.90;99.90
50556;DHT22;36508;52.512;13.450;2023-04-25T03:59:03;8.90;99.90
50556;DHT22;36508;52.512;13.450;2023-04-25T04:01:29;8.90;99.90
50556;DHT22;36508;52.512;13.450;2023-04-25T04:03:55;8.90;99.90
50556;DHT22;36508;52.512;13.450;2023-04-25T04:06:20;8.80;99.90
50556;DHT22;36508;52.512;13.450;2023-04-25T04:08:46;8.80;99.90
50556;DHT22;36508;52.512;13.450;2023-04-25T04:11:12;8.80;99.90
50556;DHT22;36508;52.512;13.450;2023-04-25T04:13:37;8.80;99.90
50556;DHT22;36508;52.512;13.450;2023-04-25T04:16:03;8.80;99.90
50556;DHT22;36508;52.512;13.450;2023-04-25T04:18:29;8.80;99.90
50556;DHT22;36508;52.512;13.450;2023-04-25T04:20:55;8.80;99.90
50556;DHT22;36508;52.512;13.450;2023-04-25T04:23:23;8.80;99.90
50556;DHT22;36508;52.512;13.450;2023-04-25T04:25:49;8.90;99.90
50556;DHT22;36508;52.512;13.450;2023-04-25T04:28:14;8.90;99.90
50556;DHT22;36508;52.512;13.450;2023-04-25T04:30:41;8.90;99.90
50556;DHT22;36508;52.512;13.450;2023-04-25T04:33:08;8.90;99.90
50556;DHT22;36508;52.512;13.450;2023-04-25T04:35:34;8.90;99.90
50556;DHT22;36508;52.512;13.450;2023-04-25T04:37:59;8.90;99.90
50556;DHT22;36508;52.512;13.450;2023-04-25T04:40:25;8.90;99.90
50556;DHT22;36508;52.512;13.450;2023-04-25T04:42:51;8.90;99.90
50556;DHT22;36508;52.512;13.450;2023-04-25T04:45:18;8.90;99.90
50556;DHT22;36508;52.512;13.450;2023-04-25T04:47:44;8.90;99.90
50556;DHT22;36508;52.512;13.450;2023-04-25T04:50:11;8.90;99.90
50556;DHT22;36508;52.512;13.450;2023-04-25T04:52:38;8.90;99.90
50556;DHT22;36508;52.512;13.450;2023-04-25T04:55:04;8.90;99.90
50556;DHT22;36508;52.512;13.450;2023-04-25T04:57:31;8.90;99.90
50556;DHT22;36508;52.512;13.450;2023-04-25T04:59:58;8.90;99.90
50556;DHT22;36508;52.512;13.450;2023-04-25T05:02:24;8.90;99.90
50556;DHT22;36508;52.512;13.450;2023-04-25T05:04:51;9.00;99.90
50556;DHT22;36508;52.512;13.450;2023-04-25T05:07:17;9.00;99.90
50556;DHT22;36508;52.512;13.450;2023-04-25T05:09:43;9.00;99.90
50556;DHT22;36508;52.512;13.450;2023-04-25T05:12:08;9.00;99.90
50556;DHT22;36508;52.512;13.450;2023-04-25T05:14:34;9.00;99.90
50556;DHT22;36508;52.512;13.450;2023-04-25T05:17:00;9.00;99.90
50556;DHT22;36508;52.512;13.450;2023-04-25T05:19:26;9.00;99.90
50556;DHT22;36508;52.512;13.450;2023-04-25T05:21:52;9.00;99.90
50556;DHT22;36508;52.512;13.450;2023-04-25T05:24:17;9.10;99.90
50556;DHT22;36508;52.512;13.450;2023-04-25T05:26:43;9.10;99.90
50556;DHT22;36508;52.512;13.450;2023-04-25T05:29:08;9.00;99.90
50556;DHT22;36508;52.512;13.450;2023-04-25T05:31:36;9.00;99.90
50556;DHT22;36508;52.512;13.450;2023-04-25T05:34:02;9.00;99.90
50556;DHT22;36508;52.512;13.450;2023-04-25T05:36:27;9.10;99.90
50556;DHT22;36508;52.512;13.450;2023-04-25T05:38:53;9.10;99.90
50556;DHT22;36508;52.512;13.450;2023-04-25T05:41:22;9.10;99.90
50556;DHT22;36508;52.512;13.450;2023-04-25T05:43:47;9.10;99.90
50556;DHT22;36508;52.512;13.450;2023-04-25T05:46:14;9.00;99.90
50556;DHT22;36508;52.512;13.450;2023-04-25T05:48:45;9.10;99.90
50556;DHT22;36508;52.512;13.450;2023-04-25T05:51:11;9.10;99.90
50556;DHT22;36508;52.512;13.450;2023-04-25T05:53:37;9.10;99.90
50556;DHT22;36508;52.512;13.450;2023-04-25T05:56:06;9.10;99.90
50556;DHT22;36508;52.512;13.450;2023-04-25T05:58:35;9.10;99.90
50556;DHT22;36508;52.512;13.450;2023-04-25T06:01:01;9.10;99.90
50556;DHT22;36508;52.512;13.450;2023-04-25T06:03:28;9.00;99.90
50556;DHT22;36508;52.512;13.450;2023-04-25T06:05:53;9.00;99.90
50556;DHT22;36508;52.512;13.450;2023-04-25T06:08:19;8.90;99.90
50556;DHT22;36508;52.512;13.450;2023-04-25T06:10:44;8.80;99.90
50556;DHT22;36508;52.512;13.450;2023-04-25T06:13:10;8.90;99.90
50556;DHT22;36508;52.512;13.450;2023-04-25T06:15:36;9.00;99.90
50556;DHT22;36508;52.512;13.450;2023-04-25T06:18:01;9.00;99.90
50556;DHT22;36508;52.512;13.450;2023-04-25T06:20:27;9.00;99.90
50556;DHT22;36508;52.512;13.450;2023-04-25T06:22:52;9.00;99.90
50556;DHT22;36508;52.512;13.450;2023-04-25T06:25:18;9.00;99.90
50556;DHT22;36508;52.512;13.450;2023-04-25T06:27:44;9.00;99.90
50556;DHT22;36508;52.512;13.450;2023-04-25T06:30:10;9.00;99.90
50556;DHT22;36508;52.512;13.450;2023-04-25T06:32:37;9.10;99.90
50556;DHT22;36508;52.512;13.450;2023-04-25T06:35:03;9.10;99.90
50556;DHT22;36508;52.512;13.450;2023-04-25T06:37:29;9.20;99.90
50556;DHT22;36508;52.512;13.450;2023-04-25T06:39:55;9.20;99.90
50556;DHT22;36508;52.512;13.450;2023-04-25T06:42:21;9.40;99.90
50556;DHT22;36508;52.512;13.450;2023-04-25T06:44:46;9.40;99.90
50556;DHT22;36508;52.512;13.450;2023-04-25T06:47:12;9.30;99.90
50556;DHT22;36508;52.512;13.450;2023-04-25T06:49:38;9.20;99.90
50556;DHT22;36508;52.512;13.450;2023-04-25T06:52:03;9.10;99.90
50556;DHT22;36508;52.512;13.450;2023-04-25T06:54:29;9.10;99.90
50556;DHT22;36508;52.512;13.450;2023-04-25T06:56:55;9.10;99.90
50556;DHT22;36508;52.512;13.450;2023-04-25T06:59:21;9.10;99.90
50556;DHT22;36508;52.512;13.450;2023-04-25T07:01:47;9.10;99.90
50556;DHT22;36508;52.512;13.450;2023-04-25T07:04:12;9.10;99.90
50556;DHT22;36508;52.512;13.450;2023-04-25T07:06:38;9.00;99.90
50556;DHT22;36508;52.512;13.450;2023-04-25T07:09:08;9.10;99.90
50556;DHT22;36508;52.512;13.450;2023-04-25T07:11:35;9.20;99.90
50556;DHT22;36508;52.512;13.450;2023-04-25T07:14:01;9.20;99.90
50556;DHT22;36508;52.512;13.450;2023-04-25T07:16:27;9.20;99.90
50556;DHT22;36508;52.512;13.450;2023-04-25T07:18:53;9.20;99.90
50556;DHT22;36508;52.512;13.450;2023-04-25T07:21:19;9.20;99.90
50556;DHT22;36508;52.512;13.450;2023-04-25T07:23:45;9.10;99.90
50556;DHT22;36508;52.512;13.450;2023-04-25T07:26:12;9.00;99.90
50556;DHT22;36508;52.512;13.450;2023-04-25T07:28:37;9.00;99.90
50556;DHT22;36508;52.512;13.450;2023-04-25T07:31:03;8.90;99.90
50556;DHT22;36508;52.512;13.450;2023-04-25T07:33:29;8.90;99.90
50556;DHT22;36508;52.512;13.450;2023-04-25T07:35:55;9.00;99.90
50556;DHT22;36508;52.512;13.450;2023-04-25T07:38:21;9.10;99.90
50556;DHT22;36508;52.512;13.450;2023-04-25T07:40:50;9.10;99.90
50556;DHT22;36508;52.512;13.450;2023-04-25T07:43:16;9.00;99.90
50556;DHT22;36508;52.512;13.450;2023-04-25T07:45:45;9.10;99.90
50556;DHT22;36508;52.512;13.450;2023-04-25T07:48:10;9.20;99.90
50556;DHT22;36508;52.512;13.450;2023-04-25T07:50:36;9.30;99.90
50556;DHT22;36508;52.512;13.450;2023-04-25T07:53:02;9.30;99.90
50556;DHT22;36508;52.512;13.450;2023-04-25T07:55:27;9.30;99.90
50556;DHT22;36508;52.512;13.450;2023-04-25T07:57:53;9.40;99.90
50556;DHT22;36508;52.512;13.450;2023-04-25T08:00:19;9.50;99.90
50556;DHT22;36508;52.512;13.450;2023-04-25T08:02:45;9.10;99.90
50556;DHT22;36508;52.512;13.450;2023-04-25T08:05:10;8.90;99.90
50556;DHT22;36508;52.512;13.450;2023-04-25T08:07:40;9.00;99.90
50556;DHT22;36508;52.512;13.450;2023-04-25T08:10:06;9.10;99.90
50556;DHT22;36508;52.512;13.450;2023-04-25T08:12:32;9.20;99.90
50556;DHT22;36508;52.512;13.450;2023-04-25T08:14:57;9.40;99.90
50556;DHT22;36508;52.512;13.450;2023-04-25T08:17:23;9.70;99.90
50556;DHT22;36508;52.512;13.450;2023-04-25T08:19:49;9.80;99.90
50556;DHT22;36508;52.512;13.450;2023-04-25T08:22:15;9.80;99.90
50556;DHT22;36508;52.512;13.450;2023-04-25T08:24:41;9.70;99.90
50556;DHT22;36508;52.512;13.450;2023-04-25T08:27:07;9.70;99.90
50556;DHT22;36508;52.512;13.450;2023-04-25T08:29:33;9.60;99.90
50556;DHT22;36508;52.512;13.450;2023-04-25T08:31:59;9.80;99.90
50556;DHT22;36508;52.512;13.450;2023-04-25T08:34:25;9.80;99.90
50556;DHT22;36508;52.512;13.450;2023-04-25T08:36:51;10.10;99.90
50556;DHT22;36508;52.512;13.450;2023-04-25T08:39:17;10.40;99.90
50556;DHT22;36508;52.512;13.450;2023-04-25T08:41:42;10.50;99.90
50556;DHT22;36508;52.512;13.450;2023-04-25T08:44:10;10.40;99.90
50556;DHT22;36508;52.512;13.450;2023-04-25T08:46:38;10.20;99.90
50556;DHT22;36508;52.512;13.450;2023-04-25T08:49:04;10.10;99.90
50556;DHT22;36508;52.512;13.450;2023-04-25T08:51:33;10.00;99.90
50556;DHT22;36508;52.512;13.450;2023-04-25T08:54:10;9.90;99.90
50556;DHT22;36508;52.512;13.450;2023-04-25T08:56:39;9.90;99.90
50556;DHT22;36508;52.512;13.450;2023-04-25T08:59:06;10.10;99.90
50556;DHT22;36508;52.512;13.450;2023-04-25T09:01:34;10.10;99.90
50556;DHT22;36508;52.512;13.450;2023-04-25T09:04:01;10.00;99.90
50556;DHT22;36508;52.512;13.450;2023-04-25T09:06:29;10.30;99.90
50556;DHT22;36508;52.512;13.450;2023-04-25T09:09:04;10.40;99.90
50556;DHT22;36508;52.512;13.450;2023-04-25T09:11:31;10.50;99.90
50556;DHT22;36508;52.512;13.450;2023-04-25T09:14:16;10.40;99.90
50556;DHT22;36508;52.512;13.450;2023-04-25T09:19:25;10.00;99.90
50556;DHT22;36508;52.512;13.450;2023-04-25T09:21:54;10.20;99.90
50556;DHT22;36508;52.512;13.450;2023-04-25T09:24:34;10.50;99.90
50556;DHT22;36508;52.512;13.450;2023-04-25T09:27:04;10.70;99.90
50556;DHT22;36508;52.512;13.450;2023-04-25T09:29:40;10.60;99.90
50556;DHT22;36508;52.512;13.450;2023-04-25T09:32:22;10.70;99.90
50556;DHT22;36508;52.512;13.450;2023-04-25T09:34:55;10.50;99.90
50556;DHT22;36508;52.512;13.450;2023-04-25T09:37:24;10.60;99.90
50556;DHT22;36508;52.512;13.450;2023-04-25T09:39:52;10.50;99.90
50556;DHT22;36508;52.512;13.450;2023-04-25T09:42:22;10.70;99.90
50556;DHT22;36508;52.512;13.450;2023-04-25T09:44:49;11.10;99.90
50556;DHT22;36508;52.512;13.450;2023-04-25T09:47:16;11.60;99.90
50556;DHT22;36508;52.512;13.450;2023-04-25T09:49:43;11.60;99.90
50556;DHT22;36508;52.512;13.450;2023-04-25T09:52:16;11.60;99.90
50556;DHT22;36508;52.512;13.450;2023-04-25T09:54:43;11.60;99.90
50556;DHT22;36508;52.512;13.450;2023-04-25T09:57:21;11.10;99.90
50556;DHT22;36508;52.512;13.450;2023-04-25T09:59:48;10.70;99.90
50556;DHT22;36508;52.512;13.450;2023-04-25T10:02:17;10.80;99.90
50556;DHT22;36508;52.512;13.450;2023-04-25T10:04:48;10.90;99.90
50556;DHT22;36508;52.512;13.450;2023-04-25T10:07:14;11.00;99.90
50556;DHT22;36508;52.512;13.450;2023-04-25T10:09:40;10.90;99.90
50556;DHT22;36508;52.512;13.450;2023-04-25T10:12:08;11.10;99.90
50556;DHT22;36508;52.512;13.450;2023-04-25T10:14:34;11.30;99.90
50556;DHT22;36508;52.512;13.450;2023-04-25T10:17:00;11.30;99.90
50556;DHT22;36508;52.512;13.450;2023-04-25T10:19:27;11.30;99.90
50556;DHT22;36508;52.512;13.450;2023-04-25T10:22:07;11.10;99.90
50556;DHT22;36508;52.512;13.450;2023-04-25T10:24:35;11.20;99.90
50556;DHT22;36508;52.512;13.450;2023-04-25T10:27:02;11.60;99.90
50556;DHT22;36508;52.512;13.450;2023-04-25T10:29:28;11.30;99.90
50556;DHT22;36508;52.512;13.450;2023-04-25T10:31:55;11.30;99.90
50556;DHT22;36508;52.512;13.450;2023-04-25T10:34:41;11.10;99.90
50556;DHT22;36508;52.512;13.450;2023-04-25T10:37:10;11.00;99.90
50556;DHT22;36508;52.512;13.450;2023-04-25T10:39:39;11.10;99.90
50556;DHT22;36508;52.512;13.450;2023-04-25T10:42:04;11.10;99.90
50556;DHT22;36508;52.512;13.450;2023-04-25T10:44:31;11.10;99.90
50556;DHT22;36508;52.512;13.450;2023-04-25T10:46:58;10.80;99.90
50556;DHT22;36508;52.512;13.450;2023-04-25T10:49:31;10.80;99.90
50556;DHT22;36508;52.512;13.450;2023-04-25T10:54:43;11.00;99.90
50556;DHT22;36508;52.512;13.450;2023-04-25T11:00:12;10.70;99.90
50556;DHT22;36508;52.512;13.450;2023-04-25T11:02:46;10.70;99.90
50556;DHT22;36508;52.512;13.450;2023-04-25T11:05:32;10.90;99.90
50556;DHT22;36508;52.512;13.450;2023-04-25T11:07:58;11.10;99.90
50556;DHT22;36508;52.512;13.450;2023-04-25T11:10:31;11.20;99.90
50556;DHT22;36508;52.512;13.450;2023-04-25T11:12:57;11.40;99.90
50556;DHT22;36508;52.512;13.450;2023-04-25T11:15:24;11.30;99.90
50556;DHT22;36508;52.512;13.450;2023-04-25T11:17:53;11.80;99.90
50556;DHT22;36508;52.512;13.450;2023-04-25T11:20:19;11.30;99.90
50556;DHT22;36508;52.512;13.450;2023-04-25T11:22:46;11.00;99.90
50556;DHT22;36508;52.512;13.450;2023-04-25T11:25:13;10.60;99.90
50556;DHT22;36508;52.512;13.450;2023-04-25T11:27:52;10.40;99.90
50556;DHT22;36508;52.512;13.450;2023-04-25T11:30:19;10.40;99.90
50556;DHT22;36508;52.512;13.450;2023-04-25T11:32:45;10.30;99.90
50556;DHT22;36508;52.512;13.450;2023-04-25T11:35:11;10.40;99.90
50556;DHT22;36508;52.512;13.450;2023-04-25T11:37:39;10.40;99.90
50556;DHT22;36508;52.512;13.450;2023-04-25T11:40:06;10.30;99.90
50556;DHT22;36508;52.512;13.450;2023-04-25T11:42:32;10.30;99.90
50556;DHT22;36508;52.512;13.450;2023-04-25T11:45:01;10.20;99.90
50556;DHT22;36508;52.512;13.450;2023-04-25T11:47:30;10.30;99.90
50556;DHT22;36508;52.512;13.450;2023-04-25T11:50:05;10.20;99.90
50556;DHT22;36508;52.512;13.450;2023-04-25T11:52:41;10.30;99.90
50556;DHT22;36508;52.512;13.450;2023-04-25T11:55:08;10.60;99.90
50556;DHT22;36508;52.512;13.450;2023-04-25T11:57:35;10.60;99.90
50556;DHT22;36508;52.512;13.450;2023-04-25T12:02:35;10.40;99.90
50556;DHT22;36508;52.512;13.450;2023-04-25T12:05:05;10.40;99.90
50556;DHT22;36508;52.512;13.450;2023-04-25T12:07:31;10.40;99.90
50556;DHT22;36508;52.512;13.450;2023-04-25T12:09:57;10.40;99.90
50556;DHT22;36508;52.512;13.450;2023-04-25T12:12:27;10.30;99.90
50556;DHT22;36508;52.512;13.450;2023-04-25T12:14:53;10.60;99.90
50556;DHT22;36508;52.512;13.450;2023-04-25T12:17:21;10.60;99.90
50556;DHT22;36508;52.512;13.450;2023-04-25T12:19:47;10.70;99.90
50556;DHT22;36508;52.512;13.450;2023-04-25T12:22:24;10.60;99.90
50556;DHT22;36508;52.512;13.450;2023-04-25T12:24:50;10.80;99.90
50556;DHT22;36508;52.512;13.450;2023-04-25T12:27:25;10.70;99.90
50556;DHT22;36508;52.512;13.450;2023-04-25T12:29:54;10.80;99.90
50556;DHT22;36508;52.512;13.450;2023-04-25T12:32:20;10.90;99.90
50556;DHT22;36508;52.512;13.450;2023-04-25T12:34:46;11.20;99.90
50556;DHT22;36508;52.512;13.450;2023-04-25T12:37:11;11.40;99.90
50556;DHT22;36508;52.512;13.450;2023-04-25T12:39:37;11.50;99.90
50556;DHT22;36508;52.512;13.450;2023-04-25T12:42:03;11.70;99.90
50556;DHT22;36508;52.512;13.450;2023-04-25T12:44:29;11.90;99.90
50556;DHT22;36508;52.512;13.450;2023-04-25T12:46:55;12.90;99.90
50556;DHT22;36508;52.512;13.450;2023-04-25T12:49:20;13.10;99.50
50556;DHT22;36508;52.512;13.450;2023-04-25T12:51:46;13.00;99.10
50556;DHT22;36508;52.512;13.450;2023-04-25T12:54:12;12.60;99.50
50556;DHT22;36508;52.512;13.450;2023-04-25T12:56:38;12.20;99.60
50556;DHT22;36508;52.512;13.450;2023-04-25T12:59:03;11.10;99.90
50556;DHT22;36508;52.512;13.450;2023-04-25T13:01:31;11.00;99.90
50556;DHT22;36508;52.512;13.450;2023-04-25T13:03:58;11.20;99.90
50556;DHT22;36508;52.512;13.450;2023-04-25T13:06:23;11.10;99.90
50556;DHT22;36508;52.512;13.450;2023-04-25T13:08:49;11.10;99.70
50556;DHT22;36508;52.512;13.450;2023-04-25T13:11:15;11.10;99.10
50556;DHT22;36508;52.512;13.450;2023-04-25T13:13:41;11.30;99.10
50556;DHT22;36508;52.512;13.450;2023-04-25T13:16:07;11.70;98.70
50556;DHT22;36508;52.512;13.450;2023-04-25T13:18:34;12.50;98.70
50556;DHT22;36508;52.512;13.450;2023-04-25T13:21:00;13.20;96.90
50556;DHT22;36508;52.512;13.450;2023-04-25T13:23:27;13.70;96.20
50556;DHT22;36508;52.512;13.450;2023-04-25T13:25:53;14.10;95.00
50556;DHT22;36508;52.512;13.450;2023-04-25T13:28:20;14.10;95.20
50556;DHT22;36508;52.512;13.450;2023-04-25T13:30:46;14.80;94.70
50556;DHT22;36508;52.512;13.450;2023-04-25T13:33:14;13.70;93.10
50556;DHT22;36508;52.512;13.450;2023-04-25T13:35:40;12.60;95.30
50556;DHT22;36508;52.512;13.450;2023-04-25T13:38:06;12.10;96.80
50556;DHT22;36508;52.512;13.450;2023-04-25T13:40:32;11.70;98.10
50556;DHT22;36508;52.512;13.450;2023-04-25T13:42:58;11.70;98.50
50556;DHT22;36508;52.512;13.450;2023-04-25T13:45:24;11.50;99.30
50556;DHT22;36508;52.512;13.450;2023-04-25T13:47:50;11.40;99.60
50556;DHT22;36508;52.512;13.450;2023-04-25T13:50:16;11.30;99.90
50556;DHT22;36508;52.512;13.450;2023-04-25T13:52:41;11.30;99.90
50556;DHT22;36508;52.512;13.450;2023-04-25T13:55:08;11.20;99.90
50556;DHT22;36508;52.512;13.450;2023-04-25T13:57:34;11.30;99.90
50556;DHT22;36508;52.512;13.450;2023-04-25T14:00:00;11.60;99.90
50556;DHT22;36508;52.512;13.450;2023-04-25T14:02:31;12.10;99.90
50556;DHT22;36508;52.512;13.450;2023-04-25T14:04:57;12.30;99.90
50556;DHT22;36508;52.512;13.450;2023-04-25T14:07:22;12.10;99.90
50556;DHT22;36508;52.512;13.450;2023-04-25T14:09:48;11.60;99.90
50556;DHT22;36508;52.512;13.450;2023-04-25T14:12:14;11.40;99.90
50556;DHT22;36508;52.512;13.450;2023-04-25T14:14:39;11.20;99.90
50556;DHT22;36508;52.512;13.450;2023-04-25T14:17:05;11.10;99.90
50556;DHT22;36508;52.512;13.450;2023-04-25T14:19:31;11.20;99.90
50556;DHT22;36508;52.512;13.450;2023-04-25T14:21:57;10.90;99.90
50556;DHT22;36508;52.512;13.450;2023-04-25T14:24:23;10.60;99.90
50556;DHT22;36508;52.512;13.450;2023-04-25T14:26:48;10.50;99.90
50556;DHT22;36508;52.512;13.450;2023-04-25T14:29:14;10.40;99.90
50556;DHT22;36508;52.512;13.450;2023-04-25T14:31:40;10.40;99.90
50556;DHT22;36508;52.512;13.450;2023-04-25T14:34:06;10.30;99.90
50556;DHT22;36508;52.512;13.450;2023-04-25T14:36:33;10.40;99.90
50556;DHT22;36508;52.512;13.450;2023-04-25T14:38:59;10.50;99.90
50556;DHT22;36508;52.512;13.450;2023-04-25T14:41:25;10.40;99.90
50556;DHT22;36508;52.512;13.450;2023-04-25T14:43:52;10.40;99.90
50556;DHT22;36508;52.512;13.450;2023-04-25T14:46:18;10.60;99.90
50556;DHT22;36508;52.512;13.450;2023-04-25T14:48:45;10.90;99.90
50556;DHT22;36508;52.512;13.450;2023-04-25T14:51:11;11.50;99.90
50556;DHT22;36508;52.512;13.450;2023-04-25T14:53:36;11.80;99.90
50556;DHT22;36508;52.512;13.450;2023-04-25T14:56:02;11.10;99.90
50556;DHT22;36508;52.512;13.450;2023-04-25T14:58:28;10.80;99.90
50556;DHT22;36508;52.512;13.450;2023-04-25T15:00:54;10.60;99.90
50556;DHT22;36508;52.512;13.450;2023-04-25T15:03:20;10.40;99.90
50556;DHT22;36508;52.512;13.450;2023-04-25T15:05:45;10.30;99.90
50556;DHT22;36508;52.512;13.450;2023-04-25T15:08:11;10.20;99.90
50556;DHT22;36508;52.512;13.450;2023-04-25T15:10:37;10.10;99.90
50556;DHT22;36508;52.512;13.450;2023-04-25T15:13:03;10.10;99.90
50556;DHT22;36508;52.512;13.450;2023-04-25T15:15:29;10.20;99.90
50556;DHT22;36508;52.512;13.450;2023-04-25T15:17:55;10.30;99.90
50556;DHT22;36508;52.512;13.450;2023-04-25T15:20:22;10.30;99.90
50556;DHT22;36508;52.512;13.450;2023-04-25T15:22:47;10.40;99.90
50556;DHT22;36508;52.512;13.450;2023-04-25T15:25:15;10.50;99.90
50556;DHT22;36508;52.512;13.450;2023-04-25T15:27:43;10.60;99.90
50556;DHT22;36508;52.512;13.450;2023-04-25T15:30:11;10.60;99.90
50556;DHT22;36508;52.512;13.450;2023-04-25T15:32:38;10.60;99.90